createdAt,value
2018-08-13T00:00:08.373Z,21.69
2018-08-13T00:02:36.394Z,21.64
2018-08-13T00:05:05.246Z,21.61
2018-08-13T00:07:33.277Z,21.58
2018-08-13T00:10:04.792Z,21.55
2018-08-13T00:12:32.992Z,21.54
2018-08-13T00:15:01.009Z,21.52
2018-08-13T00:17:29.064Z,21.48
2018-08-13T00:19:57.073Z,21.46
2018-08-13T00:22:25.102Z,21.43
2018-08-13T00:24:53.136Z,21.43
2018-08-13T00:27:21.170Z,21.44
2018-08-13T00:29:49.218Z,21.43
2018-08-13T00:32:17.253Z,21.40
2018-08-13T00:34:45.294Z,21.39
2018-08-13T00:37:13.377Z,21.38
2018-08-13T00:39:41.462Z,21.39
2018-08-13T00:42:09.495Z,21.40
2018-08-13T00:44:37.520Z,21.40
2018-08-13T00:47:05.562Z,21.42
2018-08-13T00:49:33.610Z,21.41
2018-08-13T00:52:01.642Z,21.41
2018-08-13T00:54:29.659Z,21.41
2018-08-13T00:56:57.689Z,21.40
2018-08-13T00:59:25.716Z,21.39
2018-08-13T01:01:53.748Z,21.38
2018-08-13T01:04:21.769Z,21.39
2018-08-13T01:06:49.802Z,21.40
2018-08-13T01:09:17.825Z,21.39
2018-08-13T01:11:52.498Z,21.38
2018-08-13T01:14:20.524Z,21.38
2018-08-13T01:16:48.708Z,21.39
2018-08-13T01:19:16.744Z,21.40
2018-08-13T01:21:44.795Z,21.40
2018-08-13T01:24:12.970Z,21.40
2018-08-13T01:26:40.996Z,21.37
2018-08-13T01:29:09.016Z,21.35
2018-08-13T01:31:37.206Z,21.36
2018-08-13T01:34:05.234Z,21.38
2018-08-13T01:36:33.298Z,21.38
2018-08-13T01:39:01.331Z,21.39
2018-08-13T01:41:29.365Z,21.38
2018-08-13T01:43:57.393Z,21.39
2018-08-13T01:46:25.432Z,21.38
2018-08-13T01:48:53.448Z,21.37
2018-08-13T01:51:21.483Z,21.34
2018-08-13T01:53:49.528Z,21.33
2018-08-13T01:56:17.552Z,21.32
2018-08-13T01:58:45.590Z,21.31
2018-08-13T02:01:13.615Z,21.32
2018-08-13T02:03:41.818Z,21.33
2018-08-13T02:06:09.868Z,21.32
2018-08-13T02:08:37.904Z,21.27
2018-08-13T02:11:05.940Z,21.17
2018-08-13T02:13:33.984Z,21.11
2018-08-13T02:16:02.024Z,21.10
2018-08-13T02:18:30.053Z,21.10
2018-08-13T02:20:58.097Z,21.10
2018-08-13T02:23:26.117Z,21.10
2018-08-13T02:25:54.242Z,21.11
2018-08-13T02:28:22.333Z,21.12
2018-08-13T02:30:50.366Z,21.12
2018-08-13T02:33:18.405Z,21.12
2018-08-13T02:35:46.420Z,21.12
2018-08-13T02:38:14.656Z,21.11
2018-08-13T02:40:42.688Z,21.10
2018-08-13T02:43:10.721Z,21.08
2018-08-13T02:45:38.774Z,21.08
2018-08-13T02:48:06.856Z,21.08
2018-08-13T02:50:34.921Z,21.09
2018-08-13T02:53:02.976Z,21.09
2018-08-13T02:55:30.977Z,21.10
2018-08-13T02:57:59.076Z,21.09
2018-08-13T03:00:27.034Z,21.08
2018-08-13T03:02:55.089Z,21.05
2018-08-13T03:05:23.116Z,20.99
2018-08-13T03:07:51.168Z,20.98
2018-08-13T03:10:19.202Z,20.98
2018-08-13T03:12:47.371Z,20.99
2018-08-13T03:15:15.494Z,21.02
2018-08-13T03:17:43.586Z,21.05
2018-08-13T03:20:11.666Z,21.06
2018-08-13T03:22:39.689Z,21.06
2018-08-13T03:25:09.695Z,21.07
2018-08-13T03:27:37.713Z,21.07
2018-08-13T03:30:08.287Z,21.07
2018-08-13T03:32:36.337Z,21.07
2018-08-13T03:35:05.304Z,21.06
2018-08-13T03:37:33.322Z,21.04
2018-08-13T03:40:01.321Z,21.04
2018-08-13T03:42:29.366Z,21.04
2018-08-13T03:44:57.381Z,21.03
2018-08-13T03:47:25.414Z,21.04
2018-08-13T03:49:53.441Z,21.03
2018-08-13T03:52:21.488Z,21.05
2018-08-13T03:54:49.513Z,21.04
2018-08-13T03:57:17.548Z,21.04
2018-08-13T03:59:45.576Z,21.02
2018-08-13T04:02:13.769Z,21.03
2018-08-13T04:04:41.785Z,21.02
2018-08-13T04:07:09.820Z,21.01
2018-08-13T04:09:37.868Z,21.00
2018-08-13T04:12:05.949Z,20.98
2018-08-13T04:14:33.975Z,20.98
2018-08-13T04:17:02.629Z,20.97
2018-08-13T04:19:32.020Z,20.98
2018-08-13T04:22:00.349Z,20.98
2018-08-13T04:24:28.378Z,20.95
2018-08-13T04:26:56.422Z,20.95
2018-08-13T04:29:24.651Z,20.95
2018-08-13T04:31:52.680Z,20.93
2018-08-13T04:34:20.797Z,20.92
2018-08-13T04:36:48.880Z,20.92
2018-08-13T04:39:16.916Z,20.91
2018-08-13T04:41:44.952Z,20.91
2018-08-13T04:44:13.354Z,20.90
2018-08-13T04:46:41.402Z,20.88
2018-08-13T04:49:09.592Z,20.86
2018-08-13T04:51:37.614Z,20.86
2018-08-13T04:54:05.845Z,20.83
2018-08-13T04:56:34.021Z,20.82
2018-08-13T04:59:02.152Z,20.81
2018-08-13T05:01:36.984Z,20.80
2018-08-13T05:04:05.028Z,20.82
2018-08-13T05:06:33.064Z,20.83
2018-08-13T05:09:01.109Z,20.85
2018-08-13T05:11:29.137Z,20.85
2018-08-13T05:13:57.653Z,20.84
2018-08-13T05:16:25.669Z,20.84
2018-08-13T05:18:53.695Z,20.86
2018-08-13T05:21:21.774Z,20.89
2018-08-13T05:23:49.761Z,20.90
2018-08-13T05:26:17.796Z,20.87
2018-08-13T05:28:45.817Z,20.87
2018-08-13T05:31:13.848Z,20.85
2018-08-13T05:33:41.884Z,20.81
2018-08-13T05:36:10.143Z,20.77
2018-08-13T05:38:38.124Z,20.74
2018-08-13T05:41:06.157Z,20.68
2018-08-13T05:43:34.211Z,20.66
2018-08-13T05:46:02.225Z,20.64
2018-08-13T05:48:30.313Z,20.60
2018-08-13T05:50:58.361Z,20.58
2018-08-13T05:53:26.385Z,20.55
2018-08-13T05:55:54.440Z,20.53
2018-08-13T05:58:22.462Z,20.48
2018-08-13T06:00:50.512Z,20.39
2018-08-13T06:03:18.856Z,20.41
2018-08-13T06:05:46.898Z,20.37
2018-08-13T06:08:14.944Z,20.28
2018-08-13T06:10:42.988Z,20.22
2018-08-13T06:13:11.009Z,20.20
2018-08-13T06:15:39.048Z,20.15
2018-08-13T06:18:07.111Z,20.10
2018-08-13T06:20:35.385Z,20.07
2018-08-13T06:23:03.405Z,20.03
2018-08-13T06:25:31.516Z,20.00
2018-08-13T06:27:59.545Z,19.96
2018-08-13T06:30:27.954Z,19.99
2018-08-13T06:32:55.968Z,19.99
2018-08-13T06:35:30.623Z,20.04
2018-08-13T06:37:58.657Z,20.06
2018-08-13T06:40:26.672Z,20.06
2018-08-13T06:42:54.709Z,20.04
2018-08-13T06:45:22.736Z,20.14
2018-08-13T06:47:50.774Z,20.15
2018-08-13T06:50:26.044Z,20.16
2018-08-13T06:52:54.076Z,20.16
2018-08-13T06:55:22.136Z,20.10
2018-08-13T06:57:50.179Z,20.10
2018-08-13T07:00:18.629Z,20.07
2018-08-13T07:02:53.068Z,20.05
2018-08-13T07:05:21.116Z,20.05
2018-08-13T07:07:49.184Z,20.04
2018-08-13T07:10:17.240Z,20.05
2018-08-13T07:12:46.415Z,20.11
2018-08-13T07:15:16.145Z,20.07
2018-08-13T07:17:44.197Z,20.06
2018-08-13T07:20:13.932Z,20.08
2018-08-13T07:22:42.200Z,20.13
2018-08-13T07:25:10.342Z,20.12
2018-08-13T07:27:39.007Z,20.15
2018-08-13T07:30:12.557Z,20.18
2018-08-13T07:32:40.940Z,20.18
2018-08-13T07:35:09.330Z,20.18
2018-08-13T07:37:37.398Z,20.14
2018-08-13T07:40:07.132Z,20.09
2018-08-13T07:42:35.153Z,20.09
2018-08-13T07:45:03.372Z,20.04
2018-08-13T07:47:31.401Z,20.07
2018-08-13T07:49:59.434Z,20.12
2018-08-13T07:52:27.501Z,20.14
2018-08-13T07:54:55.830Z,20.22
2018-08-13T07:57:23.881Z,20.29
2018-08-13T07:59:52.301Z,20.40
2018-08-13T08:02:20.351Z,20.49
2018-08-13T08:04:48.374Z,20.57
2018-08-13T08:07:16.580Z,20.61
2018-08-13T08:09:44.614Z,20.69
2018-08-13T08:12:12.632Z,20.82
2018-08-13T08:14:40.763Z,20.88
2018-08-13T08:17:09.096Z,20.96
2018-08-13T08:19:37.138Z,21.04
2018-08-13T08:22:05.184Z,21.14
2018-08-13T08:24:33.621Z,21.16
2018-08-13T08:27:01.814Z,21.26
2018-08-13T08:29:29.837Z,21.34
2018-08-13T08:31:57.867Z,21.44
2018-08-13T08:34:25.903Z,21.49
2018-08-13T08:36:53.942Z,21.50
2018-08-13T08:39:21.973Z,21.53
2018-08-13T08:41:50.145Z,21.60
2018-08-13T08:44:18.498Z,21.66
2018-08-13T08:46:46.525Z,21.71
2018-08-13T08:49:14.553Z,21.72
2018-08-13T08:51:42.604Z,21.82
2018-08-13T08:54:11.281Z,21.89
2018-08-13T08:56:39.318Z,22.01
2018-08-13T08:59:08.697Z,22.10
2018-08-13T09:01:36.817Z,22.23
2018-08-13T09:04:05.381Z,22.42
2018-08-13T09:06:33.413Z,22.52
2018-08-13T09:09:01.441Z,22.48
2018-08-13T09:11:29.457Z,22.47
2018-08-13T09:13:57.528Z,22.43
2018-08-13T09:16:25.549Z,22.39
2018-08-13T09:19:04.989Z,22.47
2018-08-13T09:21:34.497Z,22.48
2018-08-13T09:24:14.492Z,22.45
2018-08-13T09:26:53.820Z,22.37
2018-08-13T09:29:33.723Z,22.58
2018-08-13T09:32:28.271Z,22.75
2018-08-13T09:35:17.028Z,22.88
2018-08-13T09:37:45.253Z,22.94
2018-08-13T09:40:13.297Z,23.01
2018-08-13T09:42:41.349Z,23.01
2018-08-13T09:45:09.424Z,23.19
2018-08-13T09:47:38.313Z,23.33
2018-08-13T09:50:09.545Z,23.46
2018-08-13T09:52:37.590Z,23.46
2018-08-13T09:55:05.786Z,23.46
2018-08-13T09:57:33.832Z,23.46
2018-08-13T10:00:02.030Z,23.48
2018-08-13T10:02:30.057Z,23.50
2018-08-13T10:04:58.081Z,23.45
2018-08-13T10:07:26.244Z,23.29
2018-08-13T10:09:54.488Z,23.24
2018-08-13T10:12:22.518Z,23.24
2018-08-13T10:14:50.551Z,23.26
2018-08-13T10:17:18.578Z,23.25
2018-08-13T10:19:47.181Z,23.38
2018-08-13T10:22:15.224Z,23.39
2018-08-13T10:24:43.248Z,23.45
2018-08-13T10:27:11.309Z,23.37
2018-08-13T10:29:39.467Z,23.36
2018-08-13T10:32:07.627Z,23.36
2018-08-13T10:34:35.662Z,23.40
2018-08-13T10:37:03.697Z,23.46
2018-08-13T10:39:31.733Z,23.67
2018-08-13T10:41:59.848Z,23.85
2018-08-13T10:44:27.916Z,24.08
2018-08-13T10:46:55.952Z,24.30
2018-08-13T10:49:24.370Z,24.36
2018-08-13T10:51:52.393Z,24.37
2018-08-13T10:54:26.660Z,24.49
2018-08-13T10:56:54.717Z,24.47
2018-08-13T10:59:22.760Z,24.55
2018-08-13T11:01:50.868Z,24.67
2018-08-13T11:04:19.217Z,24.71
2018-08-13T11:06:47.250Z,24.76
2018-08-13T11:09:15.306Z,24.80
2018-08-13T11:11:43.469Z,24.85
2018-08-13T11:14:11.533Z,24.85
2018-08-13T11:16:39.558Z,24.77
2018-08-13T11:19:07.722Z,24.76
2018-08-13T11:21:35.783Z,24.82
2018-08-13T11:24:05.016Z,24.93
2018-08-13T11:26:33.064Z,25.00
2018-08-13T11:29:01.188Z,25.02
2018-08-13T11:31:29.546Z,25.07
2018-08-13T11:33:57.593Z,25.18
2018-08-13T11:36:25.634Z,25.25
2018-08-13T11:38:53.681Z,25.25
2018-08-13T11:41:21.842Z,25.35
2018-08-13T11:43:49.876Z,25.26
2018-08-13T11:46:18.111Z,25.28
2018-08-13T11:48:52.396Z,25.36
2018-08-13T11:51:20.466Z,25.41
2018-08-13T11:53:48.503Z,25.35
2018-08-13T11:56:16.608Z,25.59
2018-08-13T11:58:44.595Z,25.65
2018-08-13T12:01:12.668Z,25.71
2018-08-13T12:03:40.861Z,25.75
2018-08-13T12:06:08.894Z,25.86
2018-08-13T12:08:37.365Z,26.07
2018-08-13T12:11:05.443Z,26.11
2018-08-13T12:13:33.489Z,26.25
2018-08-13T12:16:01.669Z,26.24
2018-08-13T12:18:29.845Z,26.11
2018-08-13T12:20:58.346Z,25.94
2018-08-13T12:23:26.386Z,25.90
2018-08-13T12:25:54.427Z,25.88
2018-08-13T12:28:22.483Z,25.81
2018-08-13T12:30:50.515Z,25.67
2018-08-13T12:33:18.549Z,25.63
2018-08-13T12:35:46.578Z,25.74
2018-08-13T12:38:14.625Z,25.96
2018-08-13T12:40:42.660Z,26.07
2018-08-13T12:43:10.996Z,26.06
2018-08-13T12:45:39.101Z,26.04
2018-08-13T12:48:07.307Z,25.99
2018-08-13T12:50:35.337Z,25.97
2018-08-13T12:53:03.379Z,25.82
2018-08-13T12:55:31.684Z,25.63
2018-08-13T12:57:59.720Z,25.59
2018-08-13T13:00:27.761Z,25.48
2018-08-13T13:02:55.883Z,25.43
2018-08-13T13:05:23.920Z,25.45
2018-08-13T13:07:52.012Z,25.37
2018-08-13T13:10:20.060Z,25.31
2018-08-13T13:12:48.105Z,25.28
2018-08-13T13:15:17.732Z,25.12
2018-08-13T13:17:45.989Z,25.12
2018-08-13T13:20:16.121Z,25.11
2018-08-13T13:22:45.128Z,25.02
2018-08-13T13:25:13.165Z,24.96
2018-08-13T13:27:41.188Z,25.00
2018-08-13T13:30:11.386Z,24.94
2018-08-13T13:32:39.432Z,24.74
2018-08-13T13:35:08.621Z,24.64
2018-08-13T13:37:37.129Z,24.54
2018-08-13T13:40:07.997Z,24.32
2018-08-13T13:42:36.317Z,24.00
2018-08-13T13:45:05.324Z,23.61
2018-08-13T13:47:33.359Z,23.30
2018-08-13T13:50:01.411Z,23.07
2018-08-13T13:52:29.430Z,22.94
2018-08-13T13:54:57.474Z,22.93
2018-08-13T13:57:25.559Z,22.78
2018-08-13T13:59:53.579Z,22.52
2018-08-13T14:02:21.612Z,22.34
2018-08-13T14:04:49.637Z,22.22
2018-08-13T14:07:17.662Z,22.12
2018-08-13T14:09:45.727Z,21.99
2018-08-13T14:12:18.498Z,21.88
2018-08-13T14:14:46.762Z,21.78
2018-08-13T14:17:14.865Z,21.78
2018-08-13T14:19:43.197Z,21.66
2018-08-13T14:22:11.217Z,21.63
2018-08-13T14:24:39.384Z,21.63
2018-08-13T14:27:07.574Z,21.54
2018-08-13T14:29:35.599Z,21.48
2018-08-13T14:32:04.929Z,21.51
2018-08-13T14:34:33.038Z,21.58
2018-08-13T14:37:00.996Z,21.65
2018-08-13T14:39:29.033Z,21.70
2018-08-13T14:41:57.073Z,21.78
2018-08-13T14:44:25.093Z,21.83
2018-08-13T14:46:53.123Z,21.85
2018-08-13T14:49:21.172Z,21.97
2018-08-13T14:51:49.197Z,22.06
2018-08-13T14:54:17.230Z,22.08
2018-08-13T14:56:45.353Z,22.10
2018-08-13T14:59:13.454Z,22.21
2018-08-13T15:01:41.491Z,22.29
2018-08-13T15:04:09.525Z,22.37
2018-08-13T15:06:37.712Z,22.37
2018-08-13T15:09:08.354Z,22.40
2018-08-13T15:11:39.225Z,22.44
2018-08-13T15:14:08.340Z,22.50
2018-08-13T15:16:36.413Z,22.48
2018-08-13T15:19:05.368Z,22.37
2018-08-13T15:21:33.351Z,22.26
2018-08-13T15:24:01.380Z,22.18
2018-08-13T15:26:29.408Z,22.10
2018-08-13T15:28:57.441Z,22.09
2018-08-13T15:31:25.538Z,22.03
2018-08-13T15:33:53.629Z,21.87
2018-08-13T15:36:21.849Z,21.78
2018-08-13T15:38:49.948Z,21.76
2018-08-13T15:41:18.168Z,21.76
2018-08-13T15:43:46.657Z,21.75
2018-08-13T15:46:14.701Z,21.70
2018-08-13T15:48:42.726Z,21.61
2018-08-13T15:51:10.776Z,21.54
2018-08-13T15:53:38.857Z,21.50
2018-08-13T15:56:06.924Z,21.45
2018-08-13T15:58:34.977Z,21.40
2018-08-13T16:01:03.022Z,21.29
2018-08-13T16:03:31.060Z,21.26
2018-08-13T16:05:59.281Z,21.18
2018-08-13T16:08:27.345Z,21.06
2018-08-13T16:10:55.381Z,21.04
2018-08-13T16:13:23.437Z,20.99
2018-08-13T16:15:51.529Z,20.97
2018-08-13T16:18:19.523Z,20.89
2018-08-13T16:20:47.558Z,20.83
2018-08-13T16:23:15.628Z,20.76
2018-08-13T16:25:44.470Z,20.74
2018-08-13T16:28:12.503Z,20.80
2018-08-13T16:30:40.567Z,20.84
2018-08-13T16:33:08.619Z,20.92
2018-08-13T16:35:36.657Z,21.04
2018-08-13T16:38:05.454Z,21.12
2018-08-13T16:40:33.521Z,21.20
2018-08-13T16:43:01.551Z,21.27
2018-08-13T16:45:29.631Z,21.34
2018-08-13T16:47:57.758Z,21.40
2018-08-13T16:50:28.296Z,21.46
2018-08-13T16:52:56.645Z,21.45
2018-08-13T16:55:25.214Z,21.48
2018-08-13T16:57:53.294Z,21.48
2018-08-13T17:00:26.001Z,21.53
2018-08-13T17:02:54.253Z,21.53
2018-08-13T17:05:22.518Z,21.49
2018-08-13T17:07:50.673Z,21.45
2018-08-13T17:10:22.491Z,21.44
2018-08-13T17:12:51.225Z,21.38
2018-08-13T17:15:19.422Z,21.36
2018-08-13T17:17:49.084Z,21.32
2018-08-13T17:20:19.196Z,21.27
2018-08-13T17:22:47.235Z,21.30
2018-08-13T17:25:15.866Z,21.32
2018-08-13T17:27:44.295Z,21.33
2018-08-13T17:30:21.578Z,21.37
2018-08-13T17:32:50.668Z,21.32
2018-08-13T17:35:20.592Z,21.30
2018-08-13T17:37:49.494Z,21.30
2018-08-13T17:40:20.240Z,21.29
2018-08-13T17:42:48.441Z,21.26
2018-08-13T17:45:16.453Z,21.26
2018-08-13T17:47:44.501Z,21.24
2018-08-13T17:50:14.328Z,21.22
2018-08-13T17:52:43.216Z,21.21
2018-08-13T17:55:11.834Z,21.18
2018-08-13T17:57:40.431Z,21.10
2018-08-13T18:00:15.435Z,21.07
2018-08-13T18:02:44.009Z,21.04
2018-08-13T18:05:14.393Z,20.95
2018-08-13T18:07:42.536Z,20.87
2018-08-13T18:10:14.469Z,20.91
2018-08-13T18:12:42.534Z,20.81
2018-08-13T18:15:13.257Z,20.74
2018-08-13T18:17:41.674Z,20.66
2018-08-13T18:20:11.181Z,20.68
2018-08-13T18:22:39.240Z,20.64
2018-08-13T18:25:09.097Z,20.62
2018-08-13T18:27:37.425Z,20.58
2018-08-13T18:30:08.253Z,20.51
2018-08-13T18:32:36.402Z,20.48
2018-08-13T18:35:05.320Z,20.40
2018-08-13T18:37:33.805Z,20.31
2018-08-13T18:40:01.996Z,20.32
2018-08-13T18:42:30.144Z,20.32
2018-08-13T18:44:58.466Z,20.31
2018-08-13T18:47:26.506Z,20.27
2018-08-13T18:49:54.621Z,20.24
2018-08-13T18:52:22.961Z,20.24
2018-08-13T18:54:51.008Z,20.20
2018-08-13T18:57:19.080Z,20.14
2018-08-13T18:59:47.167Z,20.05
2018-08-13T19:02:15.297Z,20.03
2018-08-13T19:04:43.560Z,20.05
2018-08-13T19:07:11.592Z,20.03
2018-08-13T19:09:39.799Z,20.00
2018-08-13T19:12:07.862Z,19.95
2018-08-13T19:14:35.930Z,19.97
2018-08-13T19:17:04.870Z,19.95
2018-08-13T19:19:33.011Z,19.93
2018-08-13T19:22:01.062Z,19.89
2018-08-13T19:24:29.124Z,19.85
2018-08-13T19:26:57.305Z,19.83
2018-08-13T19:29:25.352Z,19.80
2018-08-13T19:31:53.396Z,19.79
2018-08-13T19:34:21.705Z,19.81
2018-08-13T19:36:49.790Z,19.78
2018-08-13T19:39:17.808Z,19.77
2018-08-13T19:41:46.229Z,19.69
2018-08-13T19:44:14.268Z,19.66
2018-08-13T19:46:42.321Z,19.68
2018-08-13T19:49:10.740Z,19.67
2018-08-13T19:51:38.794Z,19.61
2018-08-13T19:54:06.818Z,19.56
2018-08-13T19:56:34.890Z,19.55
2018-08-13T19:59:03.261Z,19.54
2018-08-13T20:01:31.753Z,19.51
2018-08-13T20:04:00.001Z,19.50
2018-08-13T20:06:28.473Z,19.50
2018-08-13T20:08:56.660Z,19.49
2018-08-13T20:11:24.932Z,19.44
2018-08-13T20:13:53.009Z,19.47
2018-08-13T20:16:21.065Z,19.47
2018-08-13T20:18:49.169Z,19.49
2018-08-13T20:21:17.224Z,19.53
2018-08-13T20:23:45.282Z,19.54
2018-08-13T20:26:13.333Z,19.51
2018-08-13T20:28:41.423Z,19.48
2018-08-13T20:31:09.456Z,19.45
2018-08-13T20:33:37.587Z,19.39
2018-08-13T20:36:05.845Z,19.36
2018-08-13T20:38:33.899Z,19.31
2018-08-13T20:41:01.927Z,19.29
2018-08-13T20:43:30.200Z,19.29
2018-08-13T20:45:58.224Z,19.30
2018-08-13T20:48:26.254Z,19.29
2018-08-13T20:50:54.288Z,19.25
2018-08-13T20:53:22.337Z,19.23
2018-08-13T20:55:50.732Z,19.17
2018-08-13T20:58:18.782Z,19.17
2018-08-13T21:00:47.071Z,19.20
2018-08-13T21:03:15.109Z,19.21
2018-08-13T21:05:43.311Z,19.17
2018-08-13T21:08:11.362Z,19.13
2018-08-13T21:10:39.417Z,19.12
2018-08-13T21:13:07.961Z,19.07
2018-08-13T21:15:36.001Z,19.03
2018-08-13T21:18:04.264Z,19.01
2018-08-13T21:20:32.312Z,18.98
2018-08-13T21:23:00.550Z,18.95
2018-08-13T21:25:28.608Z,18.95
2018-08-13T21:27:56.633Z,18.91
2018-08-13T21:30:24.779Z,18.88
2018-08-13T21:32:53.159Z,18.88
2018-08-13T21:35:23.083Z,18.90
2018-08-13T21:37:51.729Z,18.91
2018-08-13T21:40:20.132Z,18.87
2018-08-13T21:42:48.878Z,18.88
2018-08-13T21:45:16.876Z,18.89
2018-08-13T21:47:44.916Z,18.87
2018-08-13T21:50:18.340Z,18.82
2018-08-13T21:52:47.104Z,18.78
2018-08-13T21:55:15.295Z,18.71
2018-08-13T21:57:43.364Z,18.66
2018-08-13T22:00:26.579Z,18.63
2018-08-13T22:02:55.450Z,18.65
2018-08-13T22:05:23.661Z,18.64
2018-08-13T22:07:51.691Z,18.60
2018-08-13T22:10:19.727Z,18.57
2018-08-13T22:12:48.030Z,18.56
2018-08-13T22:15:21.387Z,18.51
2018-08-13T22:17:49.414Z,18.53
2018-08-13T22:20:17.437Z,18.50
2018-08-13T22:22:45.556Z,18.46
2018-08-13T22:25:16.892Z,18.46
2018-08-13T22:27:45.001Z,18.50
2018-08-13T22:30:13.025Z,18.48
2018-08-13T22:32:41.225Z,18.46
2018-08-13T22:35:09.837Z,18.43
2018-08-13T22:37:39.603Z,18.40
2018-08-13T22:40:09.746Z,18.39
2018-08-13T22:42:37.776Z,18.39
2018-08-13T22:45:07.847Z,18.37
2018-08-13T22:47:36.020Z,18.34
2018-08-13T22:50:05.582Z,18.32
2018-08-13T22:52:33.665Z,18.31
2018-08-13T22:55:01.702Z,18.28
2018-08-13T22:57:29.969Z,18.25
2018-08-13T22:59:57.996Z,18.23
2018-08-13T23:02:26.066Z,18.24
2018-08-13T23:04:54.112Z,18.24
2018-08-13T23:07:22.175Z,18.25
2018-08-13T23:09:50.198Z,18.24
2018-08-13T23:12:18.232Z,18.22
2018-08-13T23:14:46.308Z,18.24
2018-08-13T23:17:14.308Z,18.25
2018-08-13T23:19:42.344Z,18.25
2018-08-13T23:22:13.671Z,18.22
2018-08-13T23:24:41.715Z,18.20
2018-08-13T23:27:09.754Z,18.18
2018-08-13T23:29:37.773Z,18.17
2018-08-13T23:32:05.968Z,18.19
2018-08-13T23:34:33.996Z,18.20
2018-08-13T23:37:02.031Z,18.21
2018-08-13T23:39:30.055Z,18.20
2018-08-13T23:41:58.084Z,18.22
2018-08-13T23:44:26.120Z,18.17
2018-08-13T23:46:54.334Z,18.15
2018-08-13T23:49:22.365Z,18.13
2018-08-13T23:51:50.400Z,18.15
2018-08-13T23:54:18.428Z,18.15
2018-08-13T23:56:46.452Z,18.19
2018-08-13T23:59:14.484Z,18.18
